sensor_id;sensor_type;location;lat;lon;timestamp;P1;durP1;ratioP1;P2;durP2;ratioP2
20287;SDS011;10303;51.960;8.372;2023-07-20T00:00:18;1.97;;;1.87;;
20287;SDS011;10303;51.960;8.372;2023-07-20T00:02:44;1.40;;;1.30;;
20287;SDS011;10303;51.960;8.372;2023-07-20T00:05:10;1.90;;;1.80;;
20287;SDS011;10303;51.960;8.372;2023-07-20T00:07:36;3.63;;;2.00;;
20287;SDS011;10303;51.960;8.372;2023-07-20T00:10:02;1.30;;;1.20;;
20287;SDS011;10303;51.960;8.372;2023-07-20T00:12:35;1.63;;;1.53;;
20287;SDS011;10303;51.960;8.372;2023-07-20T00:15:03;1.67;;;1.57;;
20287;SDS011;10303;51.960;8.372;2023-07-20T00:17:30;1.80;;;1.70;;
20287;SDS011;10303;51.960;8.372;2023-07-20T00:19:56;2.00;;;1.73;;
20287;SDS011;10303;51.960;8.372;2023-07-20T00:22:22;1.73;;;1.63;;
20287;SDS011;10303;51.960;8.372;2023-07-20T00:24:48;2.77;;;1.90;;
20287;SDS011;10303;51.960;8.372;2023-07-20T00:27:14;1.90;;;1.80;;
20287;SDS011;10303;51.960;8.372;2023-07-20T00:29:40;1.63;;;1.53;;
20287;SDS011;10303;51.960;8.372;2023-07-20T00:32:08;1.53;;;1.43;;
20287;SDS011;10303;51.960;8.372;2023-07-20T00:34:34;1.80;;;1.70;;
20287;SDS011;10303;51.960;8.372;2023-07-20T00:37:00;1.90;;;1.80;;
20287;SDS011;10303;51.960;8.372;2023-07-20T00:39:26;1.80;;;1.70;;
20287;SDS011;10303;51.960;8.372;2023-07-20T00:41:53;1.53;;;1.43;;
20287;SDS011;10303;51.960;8.372;2023-07-20T00:44:23;1.60;;;1.50;;
20287;SDS011;10303;51.960;8.372;2023-07-20T00:46:50;1.53;;;1.43;;
20287;SDS011;10303;51.960;8.372;2023-07-20T00:49:16;1.73;;;1.57;;
20287;SDS011;10303;51.960;8.372;2023-07-20T00:51:47;2.00;;;1.80;;
20287;SDS011;10303;51.960;8.372;2023-07-20T00:54:15;1.63;;;1.53;;
20287;SDS011;10303;51.960;8.372;2023-07-20T00:56:42;1.50;;;1.40;;
20287;SDS011;10303;51.960;8.372;2023-07-20T00:59:12;4.63;;;1.53;;
20287;SDS011;10303;51.960;8.372;2023-07-20T01:01:39;1.47;;;1.37;;
20287;SDS011;10303;51.960;8.372;2023-07-20T01:04:05;1.67;;;1.47;;
20287;SDS011;10303;51.960;8.372;2023-07-20T01:06:43;1.83;;;1.73;;
20287;SDS011;10303;51.960;8.372;2023-07-20T01:09:28;1.57;;;1.47;;
20287;SDS011;10303;51.960;8.372;2023-07-20T01:12:12;1.63;;;1.53;;
20287;SDS011;10303;51.960;8.372;2023-07-20T01:14:48;3.73;;;1.60;;
20287;SDS011;10303;51.960;8.372;2023-07-20T01:17:15;1.47;;;1.37;;
20287;SDS011;10303;51.960;8.372;2023-07-20T01:19:41;1.40;;;1.30;;
20287;SDS011;10303;51.960;8.372;2023-07-20T01:33:43;1.30;;;1.20;;
20287;SDS011;10303;51.960;8.372;2023-07-20T01:36:12;1.57;;;1.47;;
20287;SDS011;10303;51.960;8.372;2023-07-20T01:38:42;2.03;;;1.83;;
20287;SDS011;10303;51.960;8.372;2023-07-20T01:41:10;2.10;;;1.80;;
20287;SDS011;10303;51.960;8.372;2023-07-20T01:43:37;1.40;;;1.30;;
20287;SDS011;10303;51.960;8.372;2023-07-20T01:46:04;1.50;;;1.40;;
20287;SDS011;10303;51.960;8.372;2023-07-20T01:48:30;1.57;;;1.47;;
20287;SDS011;10303;51.960;8.372;2023-07-20T01:50:56;2.20;;;1.33;;
20287;SDS011;10303;51.960;8.372;2023-07-20T01:53:22;1.80;;;1.70;;
20287;SDS011;10303;51.960;8.372;2023-07-20T01:55:48;2.40;;;2.20;;
20287;SDS011;10303;51.960;8.372;2023-07-20T01:58:14;3.27;;;2.10;;
20287;SDS011;10303;51.960;8.372;2023-07-20T02:00:40;5.27;;;2.10;;
20287;SDS011;10303;51.960;8.372;2023-07-20T02:03:07;2.20;;;2.10;;
20287;SDS011;10303;51.960;8.372;2023-07-20T02:05:33;2.57;;;2.37;;
20287;SDS011;10303;51.960;8.372;2023-07-20T02:07:58;3.07;;;2.43;;
20287;SDS011;10303;51.960;8.372;2023-07-20T02:10:24;3.10;;;2.10;;
20287;SDS011;10303;51.960;8.372;2023-07-20T02:12:50;2.93;;;2.17;;
20287;SDS011;10303;51.960;8.372;2023-07-20T02:15:16;3.07;;;2.20;;
20287;SDS011;10303;51.960;8.372;2023-07-20T02:17:44;3.07;;;2.83;;
20287;SDS011;10303;51.960;8.372;2023-07-20T02:20:10;2.30;;;2.10;;
20287;SDS011;10303;51.960;8.372;2023-07-20T02:22:37;2.90;;;2.57;;
20287;SDS011;10303;51.960;8.372;2023-07-20T02:25:04;4.03;;;2.40;;
20287;SDS011;10303;51.960;8.372;2023-07-20T02:27:31;6.30;;;4.83;;
20287;SDS011;10303;51.960;8.372;2023-07-20T02:29:56;4.53;;;4.13;;
20287;SDS011;10303;51.960;8.372;2023-07-20T02:32:22;6.03;;;2.87;;
20287;SDS011;10303;51.960;8.372;2023-07-20T02:34:48;3.90;;;3.60;;
20287;SDS011;10303;51.960;8.372;2023-07-20T02:37:15;4.97;;;4.50;;
20287;SDS011;10303;51.960;8.372;2023-07-20T02:39:42;4.73;;;4.23;;
20287;SDS011;10303;51.960;8.372;2023-07-20T02:42:08;6.10;;;3.93;;
20287;SDS011;10303;51.960;8.372;2023-07-20T02:44:34;5.10;;;3.23;;
20287;SDS011;10303;51.960;8.372;2023-07-20T02:47:00;3.00;;;2.70;;
20287;SDS011;10303;51.960;8.372;2023-07-20T02:49:27;4.23;;;3.93;;
20287;SDS011;10303;51.960;8.372;2023-07-20T02:51:53;3.20;;;2.97;;
20287;SDS011;10303;51.960;8.372;2023-07-20T02:54:21;3.27;;;3.07;;
20287;SDS011;10303;51.960;8.372;2023-07-20T02:56:47;3.57;;;3.30;;
20287;SDS011;10303;51.960;8.372;2023-07-20T02:59:13;3.13;;;2.83;;
20287;SDS011;10303;51.960;8.372;2023-07-20T03:01:39;3.87;;;2.80;;
20287;SDS011;10303;51.960;8.372;2023-07-20T03:04:07;2.87;;;2.67;;
20287;SDS011;10303;51.960;8.372;2023-07-20T03:06:35;4.30;;;3.90;;
20287;SDS011;10303;51.960;8.372;2023-07-20T03:09:02;3.20;;;2.90;;
20287;SDS011;10303;51.960;8.372;2023-07-20T03:11:29;8.10;;;3.30;;
20287;SDS011;10303;51.960;8.372;2023-07-20T03:13:56;4.33;;;3.97;;
20287;SDS011;10303;51.960;8.372;2023-07-20T03:16:23;10.07;;;4.83;;
20287;SDS011;10303;51.960;8.372;2023-07-20T03:18:51;6.53;;;4.03;;
20287;SDS011;10303;51.960;8.372;2023-07-20T03:21:18;5.97;;;4.90;;
20287;SDS011;10303;51.960;8.372;2023-07-20T03:23:44;6.17;;;4.33;;
20287;SDS011;10303;51.960;8.372;2023-07-20T03:26:11;4.70;;;4.30;;
20287;SDS011;10303;51.960;8.372;2023-07-20T03:28:37;7.97;;;5.10;;
20287;SDS011;10303;51.960;8.372;2023-07-20T03:31:04;5.40;;;4.90;;
20287;SDS011;10303;51.960;8.372;2023-07-20T03:33:35;4.77;;;4.37;;
20287;SDS011;10303;51.960;8.372;2023-07-20T03:36:02;3.93;;;3.30;;
20287;SDS011;10303;51.960;8.372;2023-07-20T03:38:29;4.47;;;4.07;;
20287;SDS011;10303;51.960;8.372;2023-07-20T03:40:59;4.47;;;4.07;;
20287;SDS011;10303;51.960;8.372;2023-07-20T03:43:26;5.57;;;5.07;;
20287;SDS011;10303;51.960;8.372;2023-07-20T03:45:53;10.27;;;5.10;;
20287;SDS011;10303;51.960;8.372;2023-07-20T03:48:21;4.37;;;4.03;;
20287;SDS011;10303;51.960;8.372;2023-07-20T03:50:49;4.37;;;4.07;;
20287;SDS011;10303;51.960;8.372;2023-07-20T03:53:17;4.77;;;4.30;;
20287;SDS011;10303;51.960;8.372;2023-07-20T03:55:47;4.60;;;4.20;;
20287;SDS011;10303;51.960;8.372;2023-07-20T03:58:16;5.20;;;3.77;;
20287;SDS011;10303;51.960;8.372;2023-07-20T04:00:47;3.67;;;3.37;;
20287;SDS011;10303;51.960;8.372;2023-07-20T04:03:15;3.43;;;3.13;;
20287;SDS011;10303;51.960;8.372;2023-07-20T04:05:46;3.67;;;3.30;;
20287;SDS011;10303;51.960;8.372;2023-07-20T04:08:12;5.83;;;4.20;;
20287;SDS011;10303;51.960;8.372;2023-07-20T04:10:38;5.17;;;4.77;;
20287;SDS011;10303;51.960;8.372;2023-07-20T04:13:04;4.20;;;3.80;;
20287;SDS011;10303;51.960;8.372;2023-07-20T04:15:30;3.67;;;3.37;;
20287;SDS011;10303;51.960;8.372;2023-07-20T04:17:57;4.17;;;3.20;;
20287;SDS011;10303;51.960;8.372;2023-07-20T04:20:23;2.40;;;2.30;;
20287;SDS011;10303;51.960;8.372;2023-07-20T04:22:49;2.93;;;2.70;;
20287;SDS011;10303;51.960;8.372;2023-07-20T04:25:17;2.07;;;1.97;;
20287;SDS011;10303;51.960;8.372;2023-07-20T04:27:43;2.83;;;1.70;;
20287;SDS011;10303;51.960;8.372;2023-07-20T04:30:10;1.50;;;1.40;;
20287;SDS011;10303;51.960;8.372;2023-07-20T04:32:38;1.73;;;1.43;;
20287;SDS011;10303;51.960;8.372;2023-07-20T04:35:16;1.70;;;1.40;;
20287;SDS011;10303;51.960;8.372;2023-07-20T04:38:05;1.40;;;1.30;;
20287;SDS011;10303;51.960;8.372;2023-07-20T04:40:31;1.17;;;1.07;;
20287;SDS011;10303;51.960;8.372;2023-07-20T04:42:58;1.03;;;1.03;;
20287;SDS011;10303;51.960;8.372;2023-07-20T04:45:24;0.83;;;0.83;;
20287;SDS011;10303;51.960;8.372;2023-07-20T04:47:50;1.83;;;1.27;;
20287;SDS011;10303;51.960;8.372;2023-07-20T04:50:18;2.50;;;1.50;;
20287;SDS011;10303;51.960;8.372;2023-07-20T04:52:44;2.03;;;1.40;;
20287;SDS011;10303;51.960;8.372;2023-07-20T04:55:16;2.60;;;2.00;;
20287;SDS011;10303;51.960;8.372;2023-07-20T04:57:42;2.90;;;2.53;;
20287;SDS011;10303;51.960;8.372;2023-07-20T05:00:09;1.80;;;1.63;;
20287;SDS011;10303;51.960;8.372;2023-07-20T05:02:39;2.53;;;1.50;;
20287;SDS011;10303;51.960;8.372;2023-07-20T05:05:06;2.93;;;2.07;;
20287;SDS011;10303;51.960;8.372;2023-07-20T05:07:34;1.43;;;1.33;;
20287;SDS011;10303;51.960;8.372;2023-07-20T05:10:00;1.50;;;1.40;;
20287;SDS011;10303;51.960;8.372;2023-07-20T05:12:26;1.13;;;1.10;;
20287;SDS011;10303;51.960;8.372;2023-07-20T05:14:52;3.03;;;2.00;;
20287;SDS011;10303;51.960;8.372;2023-07-20T05:17:18;1.30;;;1.20;;
20287;SDS011;10303;51.960;8.372;2023-07-20T05:19:45;2.90;;;1.37;;
20287;SDS011;10303;51.960;8.372;2023-07-20T05:22:13;1.73;;;1.40;;
20287;SDS011;10303;51.960;8.372;2023-07-20T05:24:39;1.30;;;1.20;;
20287;SDS011;10303;51.960;8.372;2023-07-20T05:27:05;1.13;;;1.10;;
20287;SDS011;10303;51.960;8.372;2023-07-20T05:29:32;1.70;;;1.60;;
20287;SDS011;10303;51.960;8.372;2023-07-20T05:31:59;1.40;;;1.30;;
20287;SDS011;10303;51.960;8.372;2023-07-20T05:34:25;0.83;;;0.83;;
20287;SDS011;10303;51.960;8.372;2023-07-20T05:36:50;1.17;;;1.13;;
20287;SDS011;10303;51.960;8.372;2023-07-20T05:39:17;1.20;;;1.10;;
20287;SDS011;10303;51.960;8.372;2023-07-20T05:41:43;1.57;;;1.27;;
20287;SDS011;10303;51.960;8.372;2023-07-20T05:44:09;1.10;;;1.10;;
20287;SDS011;10303;51.960;8.372;2023-07-20T05:46:36;1.47;;;1.37;;
20287;SDS011;10303;51.960;8.372;2023-07-20T05:49:02;1.60;;;1.00;;
20287;SDS011;10303;51.960;8.372;2023-07-20T05:51:28;1.23;;;1.10;;
20287;SDS011;10303;51.960;8.372;2023-07-20T05:53:54;1.40;;;1.27;;
20287;SDS011;10303;51.960;8.372;2023-07-20T05:56:19;2.13;;;2.03;;
20287;SDS011;10303;51.960;8.372;2023-07-20T05:58:45;2.10;;;1.57;;
20287;SDS011;10303;51.960;8.372;2023-07-20T06:01:11;1.00;;;1.00;;
20287;SDS011;10303;51.960;8.372;2023-07-20T06:03:37;1.70;;;1.10;;
20287;SDS011;10303;51.960;8.372;2023-07-20T06:06:03;1.33;;;1.10;;
20287;SDS011;10303;51.960;8.372;2023-07-20T06:08:31;0.80;;;0.80;;
20287;SDS011;10303;51.960;8.372;2023-07-20T06:10:57;1.43;;;0.80;;
20287;SDS011;10303;51.960;8.372;2023-07-20T06:13:23;1.07;;;0.97;;
20287;SDS011;10303;51.960;8.372;2023-07-20T06:15:50;1.03;;;0.90;;
20287;SDS011;10303;51.960;8.372;2023-07-20T06:18:16;1.00;;;1.00;;
20287;SDS011;10303;51.960;8.372;2023-07-20T06:20:42;2.13;;;0.87;;
20287;SDS011;10303;51.960;8.372;2023-07-20T06:23:08;1.00;;;0.70;;
20287;SDS011;10303;51.960;8.372;2023-07-20T06:25:34;1.27;;;0.80;;
20287;SDS011;10303;51.960;8.372;2023-07-20T06:28:00;5.20;;;0.63;;
20287;SDS011;10303;51.960;8.372;2023-07-20T06:30:26;0.70;;;0.70;;
20287;SDS011;10303;51.960;8.372;2023-07-20T06:32:52;0.63;;;0.63;;
20287;SDS011;10303;51.960;8.372;2023-07-20T06:35:18;0.70;;;0.70;;
20287;SDS011;10303;51.960;8.372;2023-07-20T06:37:44;0.57;;;0.57;;
20287;SDS011;10303;51.960;8.372;2023-07-20T06:40:10;0.80;;;0.80;;
20287;SDS011;10303;51.960;8.372;2023-07-20T06:42:37;0.90;;;0.60;;
20287;SDS011;10303;51.960;8.372;2023-07-20T06:45:03;1.27;;;0.50;;
20287;SDS011;10303;51.960;8.372;2023-07-20T06:47:29;0.60;;;0.60;;
20287;SDS011;10303;51.960;8.372;2023-07-20T06:49:56;0.80;;;0.57;;
20287;SDS011;10303;51.960;8.372;2023-07-20T06:52:21;0.40;;;0.40;;
20287;SDS011;10303;51.960;8.372;2023-07-20T06:54:47;0.90;;;0.90;;
20287;SDS011;10303;51.960;8.372;2023-07-20T06:57:13;2.67;;;0.60;;
20287;SDS011;10303;51.960;8.372;2023-07-20T06:59:40;1.50;;;0.70;;
20287;SDS011;10303;51.960;8.372;2023-07-20T07:02:06;0.60;;;0.60;;
20287;SDS011;10303;51.960;8.372;2023-07-20T07:04:32;0.50;;;0.50;;
20287;SDS011;10303;51.960;8.372;2023-07-20T07:06:58;0.70;;;0.70;;
20287;SDS011;10303;51.960;8.372;2023-07-20T07:09:25;0.67;;;0.67;;
20287;SDS011;10303;51.960;8.372;2023-07-20T07:11:51;1.33;;;0.50;;
20287;SDS011;10303;51.960;8.372;2023-07-20T07:14:19;0.50;;;0.50;;
20287;SDS011;10303;51.960;8.372;2023-07-20T07:16:47;0.60;;;0.60;;
20287;SDS011;10303;51.960;8.372;2023-07-20T07:19:13;0.50;;;0.50;;
20287;SDS011;10303;51.960;8.372;2023-07-20T07:21:39;0.70;;;0.50;;
20287;SDS011;10303;51.960;8.372;2023-07-20T07:24:05;0.40;;;0.40;;
20287;SDS011;10303;51.960;8.372;2023-07-20T07:26:33;0.70;;;0.50;;
20287;SDS011;10303;51.960;8.372;2023-07-20T07:28:59;0.40;;;0.40;;
20287;SDS011;10303;51.960;8.372;2023-07-20T07:31:25;0.53;;;0.40;;
20287;SDS011;10303;51.960;8.372;2023-07-20T07:33:51;0.40;;;0.40;;
20287;SDS011;10303;51.960;8.372;2023-07-20T07:36:17;0.40;;;0.40;;
20287;SDS011;10303;51.960;8.372;2023-07-20T07:38:43;0.40;;;0.40;;
20287;SDS011;10303;51.960;8.372;2023-07-20T07:41:09;1.30;;;0.50;;
20287;SDS011;10303;51.960;8.372;2023-07-20T07:43:35;0.50;;;0.50;;
20287;SDS011;10303;51.960;8.372;2023-07-20T07:46:01;0.30;;;0.30;;
20287;SDS011;10303;51.960;8.372;2023-07-20T07:48:27;0.50;;;0.50;;
20287;SDS011;10303;51.960;8.372;2023-07-20T07:50:53;0.70;;;0.50;;
20287;SDS011;10303;51.960;8.372;2023-07-20T07:53:20;0.40;;;0.40;;
20287;SDS011;10303;51.960;8.372;2023-07-20T07:55:49;0.50;;;0.50;;
20287;SDS011;10303;51.960;8.372;2023-07-20T07:58:15;1.23;;;0.50;;
20287;SDS011;10303;51.960;8.372;2023-07-20T08:00:41;0.30;;;0.30;;
20287;SDS011;10303;51.960;8.372;2023-07-20T08:03:09;0.80;;;0.77;;
20287;SDS011;10303;51.960;8.372;2023-07-20T08:05:35;0.40;;;0.40;;
20287;SDS011;10303;51.960;8.372;2023-07-20T08:08:02;0.40;;;0.40;;
20287;SDS011;10303;51.960;8.372;2023-07-20T08:10:31;0.80;;;0.57;;
20287;SDS011;10303;51.960;8.372;2023-07-20T08:12:57;0.60;;;0.60;;
20287;SDS011;10303;51.960;8.372;2023-07-20T08:15:24;0.70;;;0.70;;
20287;SDS011;10303;51.960;8.372;2023-07-20T08:17:50;1.40;;;0.50;;
20287;SDS011;10303;51.960;8.372;2023-07-20T08:20:17;0.40;;;0.40;;
20287;SDS011;10303;51.960;8.372;2023-07-20T08:22:44;2.40;;;0.70;;
20287;SDS011;10303;51.960;8.372;2023-07-20T08:25:10;0.50;;;0.50;;
20287;SDS011;10303;51.960;8.372;2023-07-20T08:27:36;1.43;;;0.70;;
20287;SDS011;10303;51.960;8.372;2023-07-20T08:30:02;0.70;;;0.70;;
20287;SDS011;10303;51.960;8.372;2023-07-20T08:32:33;0.70;;;0.70;;
20287;SDS011;10303;51.960;8.372;2023-07-20T08:34:59;0.50;;;0.50;;
20287;SDS011;10303;51.960;8.372;2023-07-20T08:37:25;0.53;;;0.53;;
20287;SDS011;10303;51.960;8.372;2023-07-20T08:39:51;0.40;;;0.40;;
20287;SDS011;10303;51.960;8.372;2023-07-20T08:42:17;0.57;;;0.57;;
20287;SDS011;10303;51.960;8.372;2023-07-20T08:44:43;0.73;;;0.60;;
20287;SDS011;10303;51.960;8.372;2023-07-20T08:47:13;0.82;;;0.60;;
20287;SDS011;10303;51.960;8.372;2023-07-20T08:49:42;0.50;;;0.50;;
20287;SDS011;10303;51.960;8.372;2023-07-20T08:52:08;0.55;;;0.55;;
20287;SDS011;10303;51.960;8.372;2023-07-20T08:54:35;0.40;;;0.40;;
20287;SDS011;10303;51.960;8.372;2023-07-20T08:57:02;0.40;;;0.40;;
20287;SDS011;10303;51.960;8.372;2023-07-20T08:59:30;0.40;;;0.40;;
20287;SDS011;10303;51.960;8.372;2023-07-20T09:02:00;0.30;;;0.30;;
20287;SDS011;10303;51.960;8.372;2023-07-20T09:04:29;0.68;;;0.47;;
20287;SDS011;10303;51.960;8.372;2023-07-20T09:06:56;0.40;;;0.40;;
20287;SDS011;10303;51.960;8.372;2023-07-20T09:09:23;1.75;;;0.60;;
20287;SDS011;10303;51.960;8.372;2023-07-20T09:11:49;0.50;;;0.50;;
20287;SDS011;10303;51.960;8.372;2023-07-20T09:14:15;0.75;;;0.75;;
20287;SDS011;10303;51.960;8.372;2023-07-20T09:16:54;0.43;;;0.43;;
20287;SDS011;10303;51.960;8.372;2023-07-20T09:19:21;0.95;;;0.50;;
20287;SDS011;10303;51.960;8.372;2023-07-20T09:21:48;1.30;;;0.60;;
20287;SDS011;10303;51.960;8.372;2023-07-20T09:24:17;0.50;;;0.50;;
20287;SDS011;10303;51.960;8.372;2023-07-20T09:26:45;0.40;;;0.40;;
20287;SDS011;10303;51.960;8.372;2023-07-20T09:29:20;0.50;;;0.50;;
20287;SDS011;10303;51.960;8.372;2023-07-20T09:32:04;0.50;;;0.50;;
20287;SDS011;10303;51.960;8.372;2023-07-20T09:34:31;0.40;;;0.40;;
20287;SDS011;10303;51.960;8.372;2023-07-20T09:36:58;1.58;;;0.95;;
20287;SDS011;10303;51.960;8.372;2023-07-20T09:39:25;0.40;;;0.40;;
20287;SDS011;10303;51.960;8.372;2023-07-20T09:41:52;0.43;;;0.43;;
20287;SDS011;10303;51.960;8.372;2023-07-20T09:44:19;0.40;;;0.40;;
20287;SDS011;10303;51.960;8.372;2023-07-20T09:46:46;1.30;;;0.32;;
20287;SDS011;10303;51.960;8.372;2023-07-20T09:49:19;0.30;;;0.30;;
20287;SDS011;10303;51.960;8.372;2023-07-20T09:51:45;0.32;;;0.32;;
20287;SDS011;10303;51.960;8.372;2023-07-20T09:54:13;1.73;;;0.68;;
20287;SDS011;10303;51.960;8.372;2023-07-20T09:56:40;0.40;;;0.40;;
20287;SDS011;10303;51.960;8.372;2023-07-20T09:59:07;0.50;;;0.50;;
20287;SDS011;10303;51.960;8.372;2023-07-20T10:01:34;0.50;;;0.50;;
20287;SDS011;10303;51.960;8.372;2023-07-20T10:04:02;0.47;;;0.47;;
20287;SDS011;10303;51.960;8.372;2023-07-20T10:06:29;0.40;;;0.40;;
20287;SDS011;10303;51.960;8.372;2023-07-20T10:09:03;0.38;;;0.38;;
20287;SDS011;10303;51.960;8.372;2023-07-20T10:11:31;0.50;;;0.50;;
20287;SDS011;10303;51.960;8.372;2023-07-20T10:14:04;0.60;;;0.60;;
20287;SDS011;10303;51.960;8.372;2023-07-20T10:16:38;0.95;;;0.95;;
20287;SDS011;10303;51.960;8.372;2023-07-20T10:19:16;1.00;;;0.90;;
20287;SDS011;10303;51.960;8.372;2023-07-20T10:21:51;0.70;;;0.70;;
20287;SDS011;10303;51.960;8.372;2023-07-20T10:24:27;0.73;;;0.73;;
20287;SDS011;10303;51.960;8.372;2023-07-20T10:26:55;1.00;;;0.90;;
20287;SDS011;10303;51.960;8.372;2023-07-20T10:29:21;0.50;;;0.50;;
20287;SDS011;10303;51.960;8.372;2023-07-20T10:31:49;1.77;;;0.75;;
20287;SDS011;10303;51.960;8.372;2023-07-20T10:34:16;1.00;;;1.00;;
20287;SDS011;10303;51.960;8.372;2023-07-20T10:36:45;0.80;;;0.80;;
20287;SDS011;10303;51.960;8.372;2023-07-20T10:39:22;0.95;;;0.95;;
20287;SDS011;10303;51.960;8.372;2023-07-20T10:41:59;1.35;;;1.13;;
20287;SDS011;10303;51.960;8.372;2023-07-20T10:44:33;1.38;;;1.10;;
20287;SDS011;10303;51.960;8.372;2023-07-20T10:47:02;0.93;;;0.93;;
20287;SDS011;10303;51.960;8.372;2023-07-20T10:49:34;1.20;;;1.20;;
20287;SDS011;10303;51.960;8.372;2023-07-20T10:52:04;1.10;;;1.10;;
20287;SDS011;10303;51.960;8.372;2023-07-20T10:57:21;1.20;;;1.20;;
20287;SDS011;10303;51.960;8.372;2023-07-20T11:00:08;1.00;;;1.00;;
20287;SDS011;10303;51.960;8.372;2023-07-20T11:02:46;0.60;;;0.60;;
20287;SDS011;10303;51.960;8.372;2023-07-20T11:08:05;0.80;;;0.80;;
20287;SDS011;10303;51.960;8.372;2023-07-20T11:10:35;3.00;;;1.23;;
20287;SDS011;10303;51.960;8.372;2023-07-20T11:13:17;1.50;;;0.98;;
20287;SDS011;10303;51.960;8.372;2023-07-20T11:15:45;1.05;;;1.05;;
20287;SDS011;10303;51.960;8.372;2023-07-20T11:18:17;1.50;;;1.27;;
20287;SDS011;10303;51.960;8.372;2023-07-20T11:20:44;0.95;;;0.95;;
20287;SDS011;10303;51.960;8.372;2023-07-20T11:23:16;1.83;;;1.30;;
20287;SDS011;10303;51.960;8.372;2023-07-20T11:25:42;1.33;;;1.23;;
20287;SDS011;10303;51.960;8.372;2023-07-20T11:28:09;1.60;;;1.50;;
20287;SDS011;10303;51.960;8.372;2023-07-20T11:30:38;1.13;;;1.02;;
20287;SDS011;10303;51.960;8.372;2023-07-20T11:33:04;1.20;;;1.20;;
20287;SDS011;10303;51.960;8.372;2023-07-20T11:35:44;1.17;;;1.10;;
20287;SDS011;10303;51.960;8.372;2023-07-20T11:38:12;0.88;;;0.88;;
20287;SDS011;10303;51.960;8.372;2023-07-20T11:40:45;0.93;;;0.93;;
20287;SDS011;10303;51.960;8.372;2023-07-20T11:43:12;1.40;;;0.88;;
20287;SDS011;10303;51.960;8.372;2023-07-20T11:45:39;5.20;;;1.15;;
20287;SDS011;10303;51.960;8.372;2023-07-20T11:48:05;0.80;;;0.80;;
20287;SDS011;10303;51.960;8.372;2023-07-20T11:50:31;0.80;;;0.80;;
20287;SDS011;10303;51.960;8.372;2023-07-20T11:53:04;1.52;;;0.90;;
20287;SDS011;10303;51.960;8.372;2023-07-20T11:55:30;0.90;;;0.90;;
20287;SDS011;10303;51.960;8.372;2023-07-20T11:58:00;0.80;;;0.80;;
20287;SDS011;10303;51.960;8.372;2023-07-20T12:00:31;0.95;;;0.95;;
20287;SDS011;10303;51.960;8.372;2023-07-20T12:02:59;0.90;;;0.90;;
20287;SDS011;10303;51.960;8.372;2023-07-20T12:05:26;1.02;;;1.02;;
20287;SDS011;10303;51.960;8.372;2023-07-20T12:07:52;1.00;;;1.00;;
20287;SDS011;10303;51.960;8.372;2023-07-20T12:10:26;1.00;;;1.00;;
20287;SDS011;10303;51.960;8.372;2023-07-20T12:12:53;0.70;;;0.70;;
20287;SDS011;10303;51.960;8.372;2023-07-20T12:15:26;0.63;;;0.63;;
20287;SDS011;10303;51.960;8.372;2023-07-20T12:17:55;0.70;;;0.70;;
20287;SDS011;10303;51.960;8.372;2023-07-20T12:23:07;0.60;;;0.55;;
20287;SDS011;10303;51.960;8.372;2023-07-20T12:25:37;0.57;;;0.52;;
20287;SDS011;10303;51.960;8.372;2023-07-20T12:28:11;0.60;;;0.60;;
20287;SDS011;10303;51.960;8.372;2023-07-20T12:30:43;0.60;;;0.60;;
20287;SDS011;10303;51.960;8.372;2023-07-20T12:33:10;0.55;;;0.55;;
20287;SDS011;10303;51.960;8.372;2023-07-20T12:35:39;0.50;;;0.50;;
20287;SDS011;10303;51.960;8.372;2023-07-20T12:38:05;0.60;;;0.60;;
20287;SDS011;10303;51.960;8.372;2023-07-20T12:40:32;0.45;;;0.45;;
20287;SDS011;10303;51.960;8.372;2023-07-20T12:42:59;0.60;;;0.60;;
20287;SDS011;10303;51.960;8.372;2023-07-20T12:45:25;0.55;;;0.55;;
20287;SDS011;10303;51.960;8.372;2023-07-20T12:47:51;0.50;;;0.50;;
20287;SDS011;10303;51.960;8.372;2023-07-20T12:50:17;0.68;;;0.60;;
20287;SDS011;10303;51.960;8.372;2023-07-20T12:52:43;0.50;;;0.50;;
20287;SDS011;10303;51.960;8.372;2023-07-20T12:55:09;0.85;;;0.50;;
20287;SDS011;10303;51.960;8.372;2023-07-20T12:57:35;0.60;;;0.60;;
20287;SDS011;10303;51.960;8.372;2023-07-20T13:00:03;0.43;;;0.43;;
20287;SDS011;10303;51.960;8.372;2023-07-20T13:02:33;0.40;;;0.40;;
20287;SDS011;10303;51.960;8.372;2023-07-20T13:04:59;0.65;;;0.60;;
20287;SDS011;10303;51.960;8.372;2023-07-20T13:07:31;0.40;;;0.40;;
20287;SDS011;10303;51.960;8.372;2023-07-20T13:09:59;0.40;;;0.38;;
20287;SDS011;10303;51.960;8.372;2023-07-20T13:12:27;0.35;;;0.30;;
20287;SDS011;10303;51.960;8.372;2023-07-20T13:14:54;0.40;;;0.40;;
20287;SDS011;10303;51.960;8.372;2023-07-20T13:17:22;0.40;;;0.40;;
20287;SDS011;10303;51.960;8.372;2023-07-20T13:19:48;0.35;;;0.35;;
20287;SDS011;10303;51.960;8.372;2023-07-20T13:22:14;0.40;;;0.40;;
20287;SDS011;10303;51.960;8.372;2023-07-20T13:24:40;0.30;;;0.30;;
20287;SDS011;10303;51.960;8.372;2023-07-20T13:27:09;0.40;;;0.40;;
20287;SDS011;10303;51.960;8.372;2023-07-20T13:29:35;0.38;;;0.38;;
20287;SDS011;10303;51.960;8.372;2023-07-20T13:32:01;0.30;;;0.30;;
20287;SDS011;10303;51.960;8.372;2023-07-20T13:34:30;0.30;;;0.30;;
20287;SDS011;10303;51.960;8.372;2023-07-20T13:36:56;0.40;;;0.40;;
20287;SDS011;10303;51.960;8.372;2023-07-20T13:39:22;0.30;;;0.30;;
20287;SDS011;10303;51.960;8.372;2023-07-20T13:41:49;2.55;;;0.40;;
20287;SDS011;10303;51.960;8.372;2023-07-20T13:44:15;0.40;;;0.40;;
20287;SDS011;10303;51.960;8.372;2023-07-20T13:46:41;0.50;;;0.50;;
20287;SDS011;10303;51.960;8.372;2023-07-20T13:49:07;0.35;;;0.35;;
20287;SDS011;10303;51.960;8.372;2023-07-20T13:51:33;0.35;;;0.35;;
20287;SDS011;10303;51.960;8.372;2023-07-20T13:53:59;0.40;;;0.40;;
20287;SDS011;10303;51.960;8.372;2023-07-20T13:56:26;0.47;;;0.32;;
20287;SDS011;10303;51.960;8.372;2023-07-20T13:58:52;0.40;;;0.40;;
20287;SDS011;10303;51.960;8.372;2023-07-20T14:01:18;0.30;;;0.30;;
20287;SDS011;10303;51.960;8.372;2023-07-20T14:03:44;0.40;;;0.40;;
20287;SDS011;10303;51.960;8.372;2023-07-20T14:06:10;0.52;;;0.30;;
20287;SDS011;10303;51.960;8.372;2023-07-20T14:08:38;0.40;;;0.40;;
20287;SDS011;10303;51.960;8.372;2023-07-20T14:11:05;0.47;;;0.47;;
20287;SDS011;10303;51.960;8.372;2023-07-20T14:13:31;0.30;;;0.30;;
20287;SDS011;10303;51.960;8.372;2023-07-20T14:15:57;0.30;;;0.30;;
20287;SDS011;10303;51.960;8.372;2023-07-20T14:18:23;1.10;;;0.90;;
20287;SDS011;10303;51.960;8.372;2023-07-20T14:20:49;1.08;;;0.60;;
20287;SDS011;10303;51.960;8.372;2023-07-20T14:23:15;0.50;;;0.50;;
20287;SDS011;10303;51.960;8.372;2023-07-20T14:25:41;0.82;;;0.30;;
20287;SDS011;10303;51.960;8.372;2023-07-20T14:28:07;0.50;;;0.50;;
20287;SDS011;10303;51.960;8.372;2023-07-20T14:30:33;0.30;;;0.30;;
20287;SDS011;10303;51.960;8.372;2023-07-20T14:32:59;1.75;;;0.40;;
20287;SDS011;10303;51.960;8.372;2023-07-20T14:35:25;0.60;;;0.35;;
20287;SDS011;10303;51.960;8.372;2023-07-20T14:37:51;0.35;;;0.35;;
20287;SDS011;10303;51.960;8.372;2023-07-20T14:40:17;0.40;;;0.40;;
20287;SDS011;10303;51.960;8.372;2023-07-20T14:42:43;2.38;;;0.40;;
20287;SDS011;10303;51.960;8.372;2023-07-20T14:45:09;0.73;;;0.50;;
20287;SDS011;10303;51.960;8.372;2023-07-20T14:47:35;0.77;;;0.60;;
20287;SDS011;10303;51.960;8.372;2023-07-20T14:50:02;2.70;;;0.40;;
20287;SDS011;10303;51.960;8.372;2023-07-20T14:52:28;0.40;;;0.40;;
20287;SDS011;10303;51.960;8.372;2023-07-20T14:54:54;0.55;;;0.40;;
20287;SDS011;10303;51.960;8.372;2023-07-20T14:57:20;0.50;;;0.50;;
20287;SDS011;10303;51.960;8.372;2023-07-20T14:59:48;0.30;;;0.30;;
20287;SDS011;10303;51.960;8.372;2023-07-20T15:02:15;0.20;;;0.20;;
20287;SDS011;10303;51.960;8.372;2023-07-20T15:04:48;0.40;;;0.40;;
20287;SDS011;10303;51.960;8.372;2023-07-20T15:07:19;0.45;;;0.43;;
20287;SDS011;10303;51.960;8.372;2023-07-20T15:09:49;0.50;;;0.40;;